Latest Coastal Weather Observations for Edithburgh

IDS60701

Issued at 7:51 pm CST Monday 26 September 2016 (issued every 10 minutes, with the page automatically refreshed every 10 minutes)

About coastal observations | Map of coastal stations | Coastal observations for SA | Marine services | Other Formats
Station Details ID: 022046 Name: EDITHBURGH Lat: -35.11 Lon: 137.74 Height: 6.0 m
Data from the previous 72 hours. | See also: Recent months at Edithburgh
Date/Time
CST
Temp
°C
Wind Pressure Rain since
9am
mm
Weather Cloud Vis
km
Sea
Height
m
Swell
Dir  Spd
kts
Gust
kts
hPa Trend Height
m
Period
s
Dir
26/07:30pm 9.7 W 6 7 1014.0 - 0.2 - - - - - - -
26/07:00pm 9.8 W 6 9 1013.9 - 0.2 - - - - - - -
26/06:30pm 10.1 WNW 8 10 1013.5 - 0.2 - - - - - - -
26/06:00pm 11.9 WNW 11 18 1013.4 - 0.2 - - - - - - -
26/05:30pm 12.4 W 13 16 1013.0 - 0.2 - - - - - - -
26/05:00pm 12.5 W 13 19 1012.5 - 0.2 - - - - - - -
26/04:30pm 13.6 W 16 23 1012.2 - 0.2 - - - - - - -
26/04:00pm 13.5 WSW 15 23 1011.7 - 0.2 - - - - - - -
26/03:30pm 14.7 WSW 18 25 1011.5 - 0.2 - - - - - - -
26/03:00pm 15.3 W 17 23 1011.4 - 0.2 - - - - - - -
26/02:30pm 16.0 W 19 24 1011.3 - 0.2 - - - - - - -
26/02:00pm 15.0 W 18 24 1011.4 - 0.2 - - - - - - -
26/01:30pm 14.8 W 19 25 1011.5 - 0.2 - - - - - - -
26/01:00pm 16.4 W 18 24 1011.3 - 0.2 - - - - - - -
26/12:30pm 15.8 WSW 14 19 1011.4 - 0.2 - - - - - - -
26/12:00pm 15.1 WSW 14 20 1011.6 - 0.2 - - - - - - -
26/11:30am 16.1 W 14 21 1011.6 - 0.2 - - - - - - -
26/11:00am 15.4 W 13 19 1011.8 - 0.2 - - - - - - -
26/10:30am 14.6 W 16 24 1011.8 - 0.2 - - - - - - -
26/10:00am 14.5 W 13 20 1012.0 - 0.2 - - - - - - -
26/09:30am 13.9 WNW 11 19 1012.2 - 0.2 - - - - - - -
26/09:00am 15.3 NW 12 15 1011.9 - 0.0 - - - - - - -
26/08:30am 14.1 NW 11 14 1011.6 - 0.0 - - - - - - -
26/08:00am 11.2 NNW 7 9 1011.4 - 0.0 - - - - - - -
26/07:30am 9.9 NW 7 8 1011.4 - 0.0 - - - - - - -
26/07:00am 9.1 NW 7 8 1011.4 - 0.0 - - - - - - -
26/06:30am 6.9 NW 7 7 1011.3 - 0.0 - - - - - - -
26/06:00am 7.9 N 5 7 1011.2 - 0.0 - - - - - - -
26/05:30am 7.9 N 5 8 1011.1 - 0.0 - - - - - - -
26/05:00am 8.7 N 6 8 1011.0 - 0.0 - - - - - - -
26/04:30am 6.7 N 5 7 1010.8 - 0.0 - - - - - - -
26/04:00am 8.3 N 5 7 1010.9 - 0.0 - - - - - - -
26/03:30am 6.6 N 7 9 1011.4 - 0.0 - - - - - - -
26/03:00am 8.7 N 7 9 1011.3 - 0.0 - - - - - - -
26/02:30am 8.4 NNE 6 7 1011.5 - 0.0 - - - - - - -
26/02:00am 5.2 NNW 5 6 1012.8 - 0.0 - - - - - - -
26/01:30am 5.4 NNW 6 6 1013.3 - 0.0 - - - - - - -
26/01:00am 6.0 NNW 5 6 1013.9 - 0.0 - - - - - - -
26/12:30am 6.9 NW 5 6 1014.2 - 0.0 - - - - - - -
26/12:00am 8.0 NNW 4 5 1014.3 - 0.0 - - - - - - -
 
Date/Time
CST
Temp
°C
Wind Pressure Rain since
9am
mm
Weather Cloud Vis
km
Sea
Height
m
Swell
Dir  Spd
kts
Gust
kts
hPa Trend Height
m
Period
s
Dir
25/11:30pm 8.0 N 5 5 1014.6 - 0.0 - - - - - - -
25/11:00pm 7.3 NNW 3 4 1014.8 - 0.0 - - - - - - -
25/10:30pm 6.1 NNW 3 3 1015.0 - 0.0 - - - - - - -
25/10:00pm 6.3 NNW 4 5 1015.3 - 0.0 - - - - - - -
25/09:30pm 6.9 WNW 4 5 1015.5 - 0.0 - - - - - - -
25/09:00pm 7.0 W 4 5 1015.2 - 0.0 - - - - - - -
25/08:30pm 7.8 WNW 5 5 1015.0 - 0.0 - - - - - - -
25/08:00pm 8.1 WNW 5 6 1014.9 - 0.0 - - - - - - -
25/07:30pm 8.4 W 5 6 1014.7 - 0.0 - - - - - - -
25/07:00pm 9.4 NW 5 6 1014.3 - 0.0 - - - - - - -
25/06:30pm 11.3 WNW 2 3 1014.1 - 0.0 - - - - - - -
25/06:00pm 12.1 CALM 0 0 1013.9 - 0.0 - - - - - - -
25/05:30pm 11.9 SE 3 4 1013.7 - 0.0 - - - - - - -
25/05:00pm 13.9 E 1 4 1013.6 - 0.0 - - - - - - -
25/04:30pm 13.8 SW 4 5 1013.5 - 0.0 - - - - - - -
25/04:00pm 14.1 WSW 7 10 1013.6 - 0.0 - - - - - - -
25/03:30pm 14.6 WSW 5 7 1013.5 - 0.0 - - - - - - -
25/03:00pm 13.9 NW 8 13 1013.6 - 0.0 - - - - - - -
25/02:30pm 14.6 NW 11 15 1013.6 - 0.0 - - - - - - -
25/02:00pm 15.1 NW 4 15 1013.9 - 0.0 - - - - - - -
25/01:30pm 13.9 ENE 3 4 1014.1 - 0.0 - - - - - - -
25/01:00pm 15.6 NNW 3 7 1014.3 - 0.0 - - - - - - -
25/12:30pm 14.4 W 3 5 1014.8 - 0.0 - - - - - - -
25/12:00pm 13.6 WNW 7 9 1015.3 - 0.0 - - - - - - -
25/11:30am 14.9 W 7 11 1015.3 - 0.0 - - - - - - -
25/11:00am 14.9 WSW 7 10 1015.4 - 0.0 - - - - - - -
25/10:30am 14.3 SSW 5 9 1015.7 - 0.0 - - - - - - -
25/10:00am 15.2 WNW 7 11 1015.5 - 0.0 - - - - - - -
25/09:30am 14.7 NW 8 11 1015.6 - 0.0 - - - - - - -
25/09:00am 14.3 W 8 11 1015.6 - 0.0 - - - - - - -
25/08:30am 13.7 W 8 12 1015.6 - 0.0 - - - - - - -
25/08:00am 12.5 W 5 7 1015.6 - 0.0 - - - - - - -
25/07:30am 11.1 WNW 7 10 1015.4 - 0.0 - - - - - - -
25/07:00am 8.3 NW 7 9 1015.1 - 0.0 - - - - - - -
25/06:30am 8.5 NW 5 7 1014.7 - 0.0 - - - - - - -
25/06:00am 8.9 W 6 9 1014.4 - 0.0 - - - - - - -
25/05:30am 7.9 NW 6 8 1014.0 - 0.0 - - - - - - -
25/05:00am 8.4 WNW 6 7 1013.5 - 0.0 - - - - - - -
25/04:30am 8.8 WNW 6 8 1013.0 - 0.0 - - - - - - -
25/04:00am 7.6 WNW 5 5 1013.1 - 0.0 - - - - - - -
25/03:30am 7.6 WNW 5 7 1013.1 - 0.0 - - - - - - -
25/03:00am 8.4 WNW 5 7 1013.0 - 0.0 - - - - - - -
25/02:30am 8.1 NW 5 7 1012.6 - 0.0 - - - - - - -
25/02:00am 9.3 W 7 9 1012.7 - 0.0 - - - - - - -
25/01:30am 6.7 WNW 6 8 1013.1 - 0.0 - - - - - - -
25/01:00am 7.4 NW 7 9 1013.2 - 0.0 - - - - - - -
25/12:30am 6.6 WNW 5 6 1013.1 - 0.0 - - - - - - -
25/12:00am 7.1 WNW 7 9 1013.1 - 0.0 - - - - - - -
 
Date/Time
CST
Temp
°C
Wind Pressure Rain since
9am
mm
Weather Cloud Vis
km
Sea
Height
m
Swell
Dir  Spd
kts
Gust
kts
hPa Trend Height
m
Period
s
Dir
24/11:30pm 8.5 WNW 6 7 1013.0 - 0.0 - - - - - - -
24/11:00pm 8.8 WSW 5 6 1013.0 - 0.0 - - - - - - -
24/10:30pm 10.8 SW 11 17 1013.0 - 0.0 - - - - - - -
24/10:00pm 9.8 WSW 8 11 1012.8 - 0.0 - - - - - - -
24/09:30pm 11.6 SW 10 13 1012.8 - 0.0 - - - - - - -
24/09:00pm 11.2 WSW 9 12 1012.5 - 0.0 - - - - - - -
24/08:30pm 10.4 WSW 8 10 1012.2 - 0.0 - - - - - - -
24/08:00pm 10.1 W 8 11 1011.9 - 0.0 - - - - - - -
24/07:30pm 10.4 WSW 10 14 1011.4 - 0.0 - - - - - - -
24/07:00pm 11.4 WSW 12 15 1010.8 - 0.0 - - - - - - -
24/06:30pm 11.6 WSW 12 16 1010.3 - 0.0 - - - - - - -
24/06:00pm 12.6 WSW 14 21 1009.6 - 0.0 - - - - - - -
24/05:30pm 12.8 WSW 13 18 1009.1 - 0.0 - - - - - - -
24/05:00pm 13.3 WSW 15 20 1008.5 - 0.0 - - - - - - -
24/04:30pm 14.6 WSW 16 24 1007.8 - 0.0 - - - - - - -
24/04:00pm 15.3 WSW 17 22 1007.4 - 0.0 - - - - - - -
24/03:30pm 15.4 WSW 15 21 1006.8 - 0.0 - - - - - - -
24/03:00pm 15.6 WSW 17 23 1006.6 - 0.0 - - - - - - -
24/02:30pm 15.3 WSW 18 24 1006.1 - 0.0 - - - - - - -
24/02:00pm 16.3 WSW 16 22 1006.1 - 0.0 - - - - - - -
24/01:30pm 16.0 WSW 17 23 1006.0 - 0.0 - - - - - - -
24/01:00pm 15.7 WSW 15 21 1006.0 - 0.0 - - - - - - -
24/12:30pm 15.7 WSW 13 19 1006.2 - 0.0 - - - - - - -
24/12:00pm 15.2 WSW 16 21 1006.1 - 0.0 - - - - - - -
24/11:30am 15.7 WSW 15 21 1006.1 - 0.0 - - - - - - -
24/11:00am 14.4 WSW 15 20 1006.0 - 0.0 - - - - - - -
24/10:30am 15.0 WSW 13 18 1005.8 - 0.0 - - - - - - -
24/10:00am 14.3 W 11 16 1005.7 - 0.0 - - - - - - -
24/09:30am 14.5 W 14 21 1005.6 - 0.0 - - - - - - -
24/09:00am 16.5 WNW 13 18 1005.4 - 0.0 - - - - - - -
24/08:30am 15.4 NW 13 18 1005.2 - 0.0 - - - - - - -
24/08:00am 15.0 NW 13 18 1004.9 - 0.0 - - - - - - -
24/07:30am 14.7 NNW 15 20 1004.8 - 0.0 - - - - - - -
24/07:00am 14.6 NNW 16 21 1004.4 - 0.0 - - - - - - -
24/06:30am 14.2 NNW 13 16 1004.2 - 0.0 - - - - - - -
24/06:00am 14.0 NNW 11 14 1004.0 - 0.0 - - - - - - -
24/05:30am 14.0 NNW 7 11 1003.7 - 0.0 - - - - - - -
24/05:00am 14.4 NNW 7 9 1003.0 - 0.0 - - - - - - -
24/04:30am 14.5 N 7 12 1003.0 - 0.0 - - - - - - -
24/04:00am 14.3 NNE 6 9 1002.7 - 0.0 - - - - - - -
24/03:30am 13.7 N 6 8 1002.8 - 0.0 - - - - - - -
24/03:00am 13.7 NNE 7 11 1003.0 - 0.0 - - - - - - -
24/02:30am 13.8 NNE 7 11 1003.5 - 0.0 - - - - - - -
24/02:00am 13.9 NNE 8 13 1003.6 - 0.0 - - - - - - -
24/01:30am 13.9 NNE 9 14 1004.0 - 0.0 - - - - - - -
24/01:00am 13.9 N 8 13 1004.6 - 0.0 - - - - - - -
24/12:30am 13.9 N 9 12 1004.9 - 0.0 - - - - - - -
24/12:00am 13.8 NNE 7 12 1005.0 - 0.0 - - - - - - -
 
Date/Time
CST
Temp
°C
Wind Pressure Rain since
9am
mm
Weather Cloud Vis
km
Sea
Height
m
Swell
Dir  Spd
kts
Gust
kts
hPa Trend Height
m
Period
s
Dir
23/11:30pm 13.7 NNE 8 12 1005.1 - 0.0 - - - - - - -
23/11:00pm 13.7 NNE 7 10 1005.1 - 0.0 - - - - - - -
23/10:30pm 14.2 NNE 7 9 1005.6 - 0.0 - - - - - - -
23/10:00pm 14.3 NNE 7 10 1006.0 - 0.0 - - - - - - -
23/09:30pm 14.1 NNE 5 7 1006.3 - 0.0 - - - - - - -
23/09:00pm 14.2 NNE 6 9 1006.6 - 0.0 - - - - - - -
23/08:30pm 14.3 NNE 6 8 1006.3 - 0.0 - - - - - - -
23/08:00pm 14.1 NNE 5 9 1006.4 - 0.0 - - - - - - -

Other Formats:

Comma delimited format used in spreadsheet applications
http://www.bom.gov.au/fwo/IDS60701/IDS60701.94809.axf

JavaScript Object Notation format (JSON) in row-major order
http://www.bom.gov.au/fwo/IDS60701/IDS60701.94809.json